Impacts METAR Board INFO
IDs:

KDCA - Washington/National, VA, US

Updated at: 0022 UTC 23 Jan 2018
Potential Impact None Slight Moderate High
Time22/12Z 22/13Z 22/14Z 22/15Z 22/16Z 22/17Z 22/18Z 22/19Z 22/20Z 22/21Z 22/22Z 22/23Z 23/00Z
VIS10 10 10 10 10 10 10 10 10 10 10 10 10
CIG70 75 110 100 100 230 230 230 230 240 250 220 210
CoverOVCOVCBKNOVCOVCOVCOVCOVCOVCBKNBKNOVCOVC
FltCatVFRVFRVFRVFRVFRVFRVFRVFRVFRVFRVFRVFRVFR
WX--------------------------
WDir0180190190180190170180180180190170160
WSpd0 5 6 6 9 7 8 9 9 12 11 8 7
WGst-- -- -- -- -- -- -- -- -- -- -- -- --
Raw hourly METARs
KDCA 221152Z 00000KT 10SM OVC070 11/05 A3013 RMK AO2 SLP204 60000 T01060050 10117 20089 53003
KDCA 221252Z 18005KT 10SM BKN075 OVC100 09/05 A3014 RMK AO2 RAB40E50 SLP205 P0000 T00940050
KDCA 221352Z 19006KT 10SM SCT090 BKN110 12/06 A3015 RMK AO2 RAB1253E1256B34E43 SLP208 P0000 T01170061
KDCA 221452Z 19006KT 10SM SCT075 BKN100 OVC250 12/06 A3016 RMK AO2 SLP213 60000 T01220056 53009
KDCA 221552Z 18009KT 10SM SCT075 BKN100 OVC250 13/06 A3015 RMK AO2 SLP209 T01330056
KDCA 221652Z 19007KT 10SM FEW100 FEW170 OVC230 15/06 A3012 RMK AO2 SLP199 T01500061
KDCA 221752Z 17008KT 10SM FEW100 FEW170 OVC230 16/06 A3008 RMK AO2 SLP187 60000 T01560061 10161 20083 58025
KDCA 221852Z 18009KT 10SM FEW100 SCT160 OVC230 16/06 A3006 RMK AO2 SLP179 T01610061
KDCA 221952Z 18009KT 10SM FEW160 OVC230 17/06 A3004 RMK AO2 SLP172 T01720056
KDCA 222052Z 18012KT 10SM FEW150 BKN240 15/05 A3002 RMK AO2 SLP167 T01500050 56020
KDCA 222152Z 19011KT 10SM FEW150 BKN250 14/06 A3002 RMK AO2 SLP167 T01440056
KDCA 222252Z 17008KT 10SM OVC220 14/06 A3002 RMK AO2 SLP167 T01390056
KDCA 222352Z 16007KT 10SM OVC210 14/06 A3002 RMK AO2 SLP165 T01390061 10183 20133 58002